Time;durP1;ratioP1;P1;durP2;ratioP2;P2;SDS_P1;SDS_P2;PMS_P1;PMS_P2;Temp;Humidity;BMP_temperature;BMP_pressure;BME280_temperature;BME280_humidity;BME280_pressure;Samples;Min_cycle;Max_cycle;Signal;HPM_P1;HPM_P2
2023/04/13 00:02:24;;;;;;;5.97;1.40;;;;;;;;;;5027260;28;20050;-80
2023/04/13 00:04:51;;;;;;;5.40;1.20;;;;;;;;;;5016409;28;20062;-81
2023/04/13 00:07:17;;;;;;;4.85;1.20;;;;;;;;;;5016124;28;20542;-81
2023/04/13 00:09:46;;;;;;;2.10;0.90;;;;;;;;;;5009301;28;20069;-80
2023/04/13 00:12:14;;;;;;;2.83;0.90;;;;;;;;;;5008573;28;20073;-80
2023/04/13 00:14:40;;;;;;;4.30;1.00;;;;;;;;;;5019507;28;20109;-80
2023/04/13 00:17:07;;;;;;;3.78;1.00;;;;;;;;;;5015463;28;20065;-80
2023/04/13 00:19:35;;;;;;;4.30;1.08;;;;;;;;;;5008497;28;20061;-79
2023/04/13 00:22:02;;;;;;;4.53;0.90;;;;;;;;;;5007435;28;20141;-79
2023/04/13 00:24:29;;;;;;;3.92;1.10;;;;;;;;;;5008315;28;20445;-80
2023/04/13 00:26:56;;;;;;;5.22;1.00;;;;;;;;;;5019451;28;20054;-80
2023/04/13 00:29:22;;;;;;;3.92;1.15;;;;;;;;;;5025347;28;20269;-80
2023/04/13 00:31:48;;;;;;;5.20;0.93;;;;;;;;;;5011201;28;20054;-80
2023/04/13 00:34:15;;;;;;;3.38;1.02;;;;;;;;;;5015160;28;20085;-80
2023/04/13 00:36:41;;;;;;;4.57;1.02;;;;;;;;;;5030454;28;20057;-80
2023/04/13 00:39:08;;;;;;;3.90;1.08;;;;;;;;;;5033325;28;20098;-80
2023/04/13 00:41:34;;;;;;;3.15;1.00;;;;;;;;;;5032225;28;20044;-80
2023/04/13 00:44:01;;;;;;;5.20;1.88;;;;;;;;;;5017740;28;20062;-80
2023/04/13 00:46:28;;;;;;;5.35;0.93;;;;;;;;;;5013885;28;20042;-81
2023/04/13 00:48:57;;;;;;;5.45;0.80;;;;;;;;;;5012975;28;20053;-79
2023/04/13 00:51:23;;;;;;;3.22;0.95;;;;;;;;;;5011797;28;20515;-81
2023/04/13 00:53:50;;;;;;;2.40;0.90;;;;;;;;;;5011113;28;20620;-81
2023/04/13 00:56:17;;;;;;;3.13;1.00;;;;;;;;;;5020915;28;20145;-81
2023/04/13 00:58:44;;;;;;;2.88;0.90;;;;;;;;;;5028128;28;20050;-81
2023/04/13 01:01:10;;;;;;;2.80;0.98;;;;;;;;;;5013933;28;20050;-81
2023/04/13 01:03:38;;;;;;;3.22;0.90;;;;;;;;;;5031584;28;20078;-80
2023/04/13 01:06:05;;;;;;;2.78;0.90;;;;;;;;;;5019875;28;20054;-80
2023/04/13 01:08:37;;;;;;;4.85;1.10;;;;;;;;;;5026691;28;21022;-79
2023/04/13 01:11:12;;;;;;;5.68;1.00;;;;;;;;;;5016934;28;20053;-81
2023/04/13 01:13:43;;;;;;;5.15;0.98;;;;;;;;;;5021483;28;20146;-81
2023/04/13 01:16:18;;;;;;;2.75;1.00;;;;;;;;;;5028631;28;20065;-80
2023/04/13 01:18:48;;;;;;;5.15;1.02;;;;;;;;;;5009175;28;20069;-82
2023/04/13 01:21:16;;;;;;;5.18;1.15;;;;;;;;;;5019967;28;20141;-82
2023/04/13 01:23:48;;;;;;;4.80;0.95;;;;;;;;;;5027017;28;20054;-82
2023/04/13 01:26:16;;;;;;;3.42;1.10;;;;;;;;;;5021034;28;20054;-83
2023/04/13 01:28:43;;;;;;;4.60;1.65;;;;;;;;;;5010200;28;20113;-83
2023/04/13 01:31:12;;;;;;;4.15;1.10;;;;;;;;;;5009292;28;20143;-83
2023/04/13 01:33:40;;;;;;;4.10;1.10;;;;;;;;;;5016892;28;20050;-84
2023/04/13 01:36:08;;;;;;;2.80;1.05;;;;;;;;;;5024770;28;20050;-81
2023/04/13 01:38:35;;;;;;;9.18;1.08;;;;;;;;;;5024946;28;20054;-81
2023/04/13 01:41:05;;;;;;;3.35;1.00;;;;;;;;;;5026451;28;20049;-81
2023/04/13 01:43:31;;;;;;;3.83;1.13;;;;;;;;;;5026192;28;20052;-82
2023/04/13 01:46:08;;;;;;;4.70;1.10;;;;;;;;;;5012693;28;20539;-81
2023/04/13 01:48:42;;;;;;;4.63;1.10;;;;;;;;;;5026015;28;20050;-81
2023/04/13 01:51:31;;;;;;;3.05;1.23;;;;;;;;;;5021614;28;20831;-80
2023/04/13 01:54:11;;;;;;;3.47;1.40;;;;;;;;;;5018413;28;20152;-81
2023/04/13 01:56:38;;;;;;;4.70;1.38;;;;;;;;;;5024164;28;20041;-82
2023/04/13 01:59:05;;;;;;;3.85;1.60;;;;;;;;;;5025355;28;20058;-82
2023/04/13 02:01:31;;;;;;;3.65;1.48;;;;;;;;;;5024668;28;20053;-82
2023/04/13 02:03:58;;;;;;;8.15;2.10;;;;;;;;;;5025657;28;20062;-81
2023/04/13 02:06:25;;;;;;;4.13;1.30;;;;;;;;;;5005016;28;20078;-82
2023/04/13 02:08:52;;;;;;;5.30;1.60;;;;;;;;;;5022773;28;20658;-85
2023/04/13 02:11:18;;;;;;;5.50;1.50;;;;;;;;;;5004956;28;20061;-83
2023/04/13 02:13:45;;;;;;;5.78;1.60;;;;;;;;;;5018504;28;20068;-83
2023/04/13 02:16:11;;;;;;;3.90;1.70;;;;;;;;;;5016196;28;20073;-82
2023/04/13 02:18:37;;;;;;;4.80;1.63;;;;;;;;;;5018310;28;20504;-81
2023/04/13 02:21:08;;;;;;;6.95;1.85;;;;;;;;;;5005602;28;20058;-80
2023/04/13 02:23:35;;;;;;;4.38;1.70;;;;;;;;;;5014049;28;20057;-83
2023/04/13 02:26:01;;;;;;;5.43;2.03;;;;;;;;;;5025379;28;20128;-81
2023/04/13 02:28:28;;;;;;;5.22;2.00;;;;;;;;;;5025175;28;20050;-81
2023/04/13 02:30:55;;;;;;;5.13;2.13;;;;;;;;;;5029769;28;20060;-83
2023/04/13 02:33:21;;;;;;;7.07;2.60;;;;;;;;;;5028929;28;20050;-82
2023/04/13 02:35:48;;;;;;;6.65;2.70;;;;;;;;;;5008407;28;20061;-81
2023/04/13 02:38:14;;;;;;;7.60;3.20;;;;;;;;;;5026756;28;20057;-79
2023/04/13 02:40:42;;;;;;;8.50;3.38;;;;;;;;;;5028920;28;20056;-79
2023/04/13 02:43:08;;;;;;;10.75;4.07;;;;;;;;;;5019843;28;20702;-77
2023/04/13 02:45:35;;;;;;;8.93;3.40;;;;;;;;;;5028019;28;20072;-80
2023/04/13 02:48:03;;;;;;;9.00;3.70;;;;;;;;;;5028679;28;20062;-82
2023/04/13 02:50:30;;;;;;;7.18;2.80;;;;;;;;;;5011177;28;20329;-79
2023/04/13 02:52:56;;;;;;;8.20;3.20;;;;;;;;;;5023710;28;20046;-80
2023/04/13 02:55:22;;;;;;;8.05;3.30;;;;;;;;;;5009265;28;20054;-78
2023/04/13 02:57:49;;;;;;;7.50;2.90;;;;;;;;;;5009056;28;20133;-78
2023/04/13 03:00:15;;;;;;;10.40;3.53;;;;;;;;;;5014824;28;20046;-79
2023/04/13 03:02:43;;;;;;;6.82;2.60;;;;;;;;;;5022428;28;20081;-81
2023/04/13 03:05:09;;;;;;;7.60;2.60;;;;;;;;;;5024327;28;20065;-81
2023/04/13 03:07:36;;;;;;;7.53;2.53;;;;;;;;;;5030007;28;20054;-81
2023/04/13 03:10:04;;;;;;;5.38;2.30;;;;;;;;;;5028741;28;20062;-84
2023/04/13 03:12:31;;;;;;;6.90;2.25;;;;;;;;;;5028721;28;20144;-81
2023/04/13 03:15:01;;;;;;;8.40;2.20;;;;;;;;;;5014915;28;20050;-83
2023/04/13 03:17:29;;;;;;;6.75;1.85;;;;;;;;;;5009749;28;20086;-82
2023/04/13 03:19:56;;;;;;;6.60;1.85;;;;;;;;;;5008775;28;20094;-82
2023/04/13 03:22:23;;;;;;;6.45;2.00;;;;;;;;;;5011482;28;20055;-81
2023/04/13 03:24:49;;;;;;;6.32;1.67;;;;;;;;;;5021011;28;20060;-83
2023/04/13 03:27:16;;;;;;;4.30;1.30;;;;;;;;;;5028384;28;21129;-83
2023/04/13 03:29:42;;;;;;;6.72;1.23;;;;;;;;;;5011081;28;20054;-82
2023/04/13 03:32:08;;;;;;;6.03;1.50;;;;;;;;;;5026082;28;20097;-82
2023/04/13 03:34:35;;;;;;;5.93;1.30;;;;;;;;;;5023478;28;20058;-81
2023/04/13 03:37:01;;;;;;;5.75;1.25;;;;;;;;;;5027210;28;20050;-82
2023/04/13 03:39:28;;;;;;;4.70;0.93;;;;;;;;;;5024059;28;20077;-81
2023/04/13 03:41:54;;;;;;;10.23;1.20;;;;;;;;;;5014903;28;20141;-84
2023/04/13 03:44:21;;;;;;;4.90;1.00;;;;;;;;;;5008309;28;20058;-81
2023/04/13 03:46:47;;;;;;;5.30;1.15;;;;;;;;;;5024885;28;20052;-81
2023/04/13 03:49:14;;;;;;;3.70;1.02;;;;;;;;;;5029154;28;20140;-83
2023/04/13 03:51:40;;;;;;;5.53;1.38;;;;;;;;;;5028382;28;20053;-82
2023/04/13 03:54:07;;;;;;;4.30;1.10;;;;;;;;;;5021591;28;20481;-85
2023/04/13 03:56:33;;;;;;;4.00;1.30;;;;;;;;;;5011977;28;20054;-85
2023/04/13 03:58:59;;;;;;;3.35;1.15;;;;;;;;;;5015693;28;20509;-82
2023/04/13 04:01:26;;;;;;;5.03;1.13;;;;;;;;;;5026111;28;20050;-83
2023/04/13 04:03:55;;;;;;;4.47;1.27;;;;;;;;;;5024299;28;20090;-83
2023/04/13 04:06:23;;;;;;;7.03;1.63;;;;;;;;;;5007067;28;20094;-83
2023/04/13 04:08:50;;;;;;;7.53;1.38;;;;;;;;;;5014885;28;20316;-82
2023/04/13 04:11:16;;;;;;;6.40;1.90;;;;;;;;;;5026015;28;20068;-83
2023/04/13 04:13:43;;;;;;;6.72;2.05;;;;;;;;;;5021848;28;20058;-83
2023/04/13 04:16:10;;;;;;;5.72;2.45;;;;;;;;;;5009550;28;20062;-81
2023/04/13 04:18:37;;;;;;;10.43;2.22;;;;;;;;;;5007725;28;20105;-81
2023/04/13 04:21:05;;;;;;;9.63;1.92;;;;;;;;;;5015422;28;20068;-79
2023/04/13 04:23:33;;;;;;;6.00;1.88;;;;;;;;;;5021136;28;20054;-79
2023/04/13 04:26:01;;;;;;;4.88;1.63;;;;;;;;;;5024991;28;20052;-80
2023/04/13 04:28:30;;;;;;;13.02;2.45;;;;;;;;;;5006843;28;20085;-81
2023/04/13 04:31:00;;;;;;;7.68;2.08;;;;;;;;;;5011631;28;20056;-82
2023/04/13 04:33:26;;;;;;;7.20;1.83;;;;;;;;;;5025772;28;20053;-81
2023/04/13 04:35:53;;;;;;;6.60;1.75;;;;;;;;;;5024756;28;20931;-82
2023/04/13 04:38:20;;;;;;;11.25;2.40;;;;;;;;;;5008300;28;20539;-84
2023/04/13 04:40:48;;;;;;;15.52;2.15;;;;;;;;;;5006991;28;20096;-81
2023/04/13 04:43:15;;;;;;;4.25;1.80;;;;;;;;;;5020218;28;20617;-80
2023/04/13 04:45:42;;;;;;;8.98;1.95;;;;;;;;;;5019127;28;20706;-78
2023/04/13 04:48:10;;;;;;;5.60;1.98;;;;;;;;;;5004536;28;20058;-79
2023/04/13 04:50:37;;;;;;;4.93;1.60;;;;;;;;;;5018449;28;20133;-78
2023/04/13 04:53:03;;;;;;;9.23;2.10;;;;;;;;;;5025217;28;20053;-83
2023/04/13 04:55:30;;;;;;;7.35;1.92;;;;;;;;;;5024655;28;20497;-82
2023/04/13 04:57:56;;;;;;;7.65;1.95;;;;;;;;;;5024854;28;20061;-82
2023/04/13 05:00:25;;;;;;;19.13;2.33;;;;;;;;;;5020610;28;20980;-86
2023/04/13 05:02:51;;;;;;;5.80;2.03;;;;;;;;;;5024624;28;20050;-78
2023/04/13 05:05:18;;;;;;;7.65;1.80;;;;;;;;;;5024030;28;20581;-80
2023/04/13 05:07:45;;;;;;;9.10;2.35;;;;;;;;;;5021799;28;20050;-86
2023/04/13 05:10:11;;;;;;;8.85;1.90;;;;;;;;;;5023965;28;20058;-84
2023/04/13 05:12:37;;;;;;;7.80;1.95;;;;;;;;;;5026641;28;20058;-81
2023/04/13 05:15:04;;;;;;;6.72;1.92;;;;;;;;;;5015090;28;20054;-84
2023/04/13 05:17:30;;;;;;;6.20;1.88;;;;;;;;;;5006381;28;20461;-80
2023/04/13 05:20:00;;;;;;;7.03;1.70;;;;;;;;;;5009704;28;20912;-80
2023/04/13 05:22:26;;;;;;;10.00;1.60;;;;;;;;;;5026057;28;20060;-81
2023/04/13 05:24:53;;;;;;;5.72;1.65;;;;;;;;;;5025975;28;20049;-80
2023/04/13 05:27:19;;;;;;;4.68;1.50;;;;;;;;;;5027099;28;20054;-84
2023/04/13 05:29:46;;;;;;;9.18;1.65;;;;;;;;;;5025811;28;20081;-83
2023/04/13 05:32:13;;;;;;;9.43;1.95;;;;;;;;;;5006743;28;20948;-81
2023/04/13 05:34:39;;;;;;;7.13;1.70;;;;;;;;;;5019657;28;20057;-84
2023/04/13 05:37:06;;;;;;;7.05;1.98;;;;;;;;;;5023547;28;20527;-80
2023/04/13 05:39:32;;;;;;;11.70;2.42;;;;;;;;;;5018089;28;20050;-83
2023/04/13 05:42:00;;;;;;;9.02;2.22;;;;;;;;;;5005657;28;20141;-82
2023/04/13 05:44:26;;;;;;;10.93;2.13;;;;;;;;;;5005782;28;20050;-80
2023/04/13 05:46:53;;;;;;;9.55;2.55;;;;;;;;;;5003768;28;20090;-84
2023/04/13 05:49:19;;;;;;;6.20;2.10;;;;;;;;;;5024576;28;20054;-81
2023/04/13 05:51:46;;;;;;;11.77;1.77;;;;;;;;;;5023060;28;20053;-82
2023/04/13 05:54:13;;;;;;;10.32;2.03;;;;;;;;;;5026742;28;20904;-81
2023/04/13 05:56:39;;;;;;;7.85;1.98;;;;;;;;;;5025483;28;20052;-83
2023/04/13 05:59:06;;;;;;;13.00;2.35;;;;;;;;;;5010008;28;20046;-83
2023/04/13 06:01:33;;;;;;;7.82;1.90;;;;;;;;;;5019489;28;20082;-83
2023/04/13 06:04:01;;;;;;;6.32;1.92;;;;;;;;;;5025233;28;20908;-84
2023/04/13 06:06:29;;;;;;;12.13;1.85;;;;;;;;;;5032334;28;20112;-82
2023/04/13 06:08:55;;;;;;;10.13;2.60;;;;;;;;;;5021110;28;20054;-82
2023/04/13 06:11:23;;;;;;;7.07;1.75;;;;;;;;;;5005121;28;20054;-82
2023/04/13 06:13:50;;;;;;;9.07;1.80;;;;;;;;;;5011874;28;20066;-84
2023/04/13 06:16:17;;;;;;;8.10;1.80;;;;;;;;;;5025245;28;20056;-85
2023/04/13 06:18:43;;;;;;;9.43;2.03;;;;;;;;;;5024751;28;20120;-81
2023/04/13 06:21:10;;;;;;;5.90;1.83;;;;;;;;;;5007891;28;20192;-81
2023/04/13 06:23:36;;;;;;;6.50;1.48;;;;;;;;;;5006267;28;20062;-81
2023/04/13 06:26:03;;;;;;;5.20;1.25;;;;;;;;;;5022408;28;20060;-85
2023/04/13 06:28:31;;;;;;;6.20;1.15;;;;;;;;;;5024656;28;20060;-84
2023/04/13 06:30:57;;;;;;;7.07;1.20;;;;;;;;;;5009108;28;20054;-81
2023/04/13 06:33:25;;;;;;;4.63;0.98;;;;;;;;;;5021974;28;20060;-82
2023/04/13 06:35:51;;;;;;;6.35;1.10;;;;;;;;;;5017022;28;20880;-84
2023/04/13 06:38:18;;;;;;;8.85;1.30;;;;;;;;;;5018776;28;20054;-84
2023/04/13 06:40:45;;;;;;;6.70;1.30;;;;;;;;;;5022020;28;20082;-81
2023/04/13 06:43:11;;;;;;;4.10;1.27;;;;;;;;;;5015494;28;20066;-84
2023/04/13 06:45:58;;;;;;;4.80;1.40;;;;;;;;;;5020291;28;20146;-84
2023/04/13 06:48:25;;;;;;;4.60;1.20;;;;;;;;;;5023919;28;20866;-79
2023/04/13 06:50:54;;;;;;;6.28;1.33;;;;;;;;;;5018650;28;20058;-82
2023/04/13 06:53:20;;;;;;;3.13;1.20;;;;;;;;;;5018539;28;20062;-82
2023/04/13 06:55:46;;;;;;;4.32;1.15;;;;;;;;;;5024787;28;20137;-82
2023/04/13 06:58:13;;;;;;;4.00;1.20;;;;;;;;;;5019279;28;20058;-80
2023/04/13 07:00:39;;;;;;;8.43;1.50;;;;;;;;;;5020814;28;20072;-80
2023/04/13 07:03:06;;;;;;;4.90;1.10;;;;;;;;;;5014935;28;20588;-82
2023/04/13 07:05:32;;;;;;;5.40;1.30;;;;;;;;;;5016329;28;20054;-81
2023/04/13 07:07:59;;;;;;;9.00;1.55;;;;;;;;;;5009928;28;20054;-83
2023/04/13 07:10:26;;;;;;;3.63;1.10;;;;;;;;;;5018995;28;20050;-81
2023/04/13 07:12:52;;;;;;;5.30;1.35;;;;;;;;;;5017300;28;20113;-82
2023/04/13 07:15:19;;;;;;;5.32;1.20;;;;;;;;;;5015269;28;20054;-80
2023/04/13 07:17:45;;;;;;;4.25;1.50;;;;;;;;;;5021135;28;20088;-81
2023/04/13 07:20:12;;;;;;;4.63;1.50;;;;;;;;;;5026444;28;20054;-82
2023/04/13 07:22:38;;;;;;;3.83;0.98;;;;;;;;;;5012582;28;20069;-80
2023/04/13 07:25:06;;;;;;;6.32;1.25;;;;;;;;;;5016737;28;20050;-83
2023/04/13 07:27:32;;;;;;;4.57;1.00;;;;;;;;;;5043377;28;20101;-83
2023/04/13 07:30:00;;;;;;;4.60;1.08;;;;;;;;;;5028877;28;20057;-82
2023/04/13 07:32:27;;;;;;;5.07;1.00;;;;;;;;;;5017214;28;20138;-83
2023/04/13 07:35:00;;;;;;;4.50;0.98;;;;;;;;;;5025479;28;20069;-81
2023/04/13 07:37:27;;;;;;;4.85;1.38;;;;;;;;;;5024000;28;20050;-80
2023/04/13 07:39:54;;;;;;;6.25;1.10;;;;;;;;;;5010418;28;20062;-81
2023/04/13 07:42:20;;;;;;;8.65;1.30;;;;;;;;;;5021398;28;20444;-81
2023/04/13 07:44:46;;;;;;;8.35;1.25;;;;;;;;;;5027580;28;20054;-81
2023/04/13 07:47:13;;;;;;;6.80;1.35;;;;;;;;;;5025021;28;20497;-84
2023/04/13 07:49:39;;;;;;;5.97;1.45;;;;;;;;;;5010688;28;20082;-82
2023/04/13 07:52:05;;;;;;;5.90;1.58;;;;;;;;;;5021251;28;20089;-81
2023/04/13 07:54:33;;;;;;;9.35;1.65;;;;;;;;;;5024775;28;20169;-82
2023/04/13 07:57:01;;;;;;;6.25;1.70;;;;;;;;;;5024689;28;20157;-82
2023/04/13 07:59:28;;;;;;;6.45;1.98;;;;;;;;;;5007888;28;20545;-84
2023/04/13 08:01:54;;;;;;;11.35;2.25;;;;;;;;;;5008937;28;20049;-82
2023/04/13 08:04:21;;;;;;;9.60;2.45;;;;;;;;;;5014781;28;20056;-82
2023/04/13 08:06:47;;;;;;;10.50;2.28;;;;;;;;;;5019329;28;20069;-83
2023/04/13 08:09:14;;;;;;;7.55;2.10;;;;;;;;;;5010226;28;20111;-82
2023/04/13 08:11:41;;;;;;;10.68;2.05;;;;;;;;;;5013414;28;20058;-81
2023/04/13 08:14:08;;;;;;;9.65;2.15;;;;;;;;;;5022752;28;20140;-82
2023/04/13 08:16:35;;;;;;;14.38;2.13;;;;;;;;;;5027621;28;20136;-82
2023/04/13 08:19:01;;;;;;;10.73;3.08;;;;;;;;;;5027596;28;20054;-81
2023/04/13 08:21:28;;;;;;;13.02;2.33;;;;;;;;;;5017651;28;20053;-82
2023/04/13 08:23:55;;;;;;;8.07;1.88;;;;;;;;;;5016366;28;20043;-82
2023/04/13 08:26:25;;;;;;;11.48;2.25;;;;;;;;;;5019655;28;20517;-81
2023/04/13 08:28:55;;;;;;;11.23;2.03;;;;;;;;;;5019042;28;20054;-83
2023/04/13 08:31:22;;;;;;;13.93;2.25;;;;;;;;;;5017591;28;20054;-78
2023/04/13 08:33:48;;;;;;;10.40;2.17;;;;;;;;;;5019057;28;20065;-78
2023/04/13 08:36:16;;;;;;;13.77;2.17;;;;;;;;;;5025561;28;20059;-80
2023/04/13 08:38:42;;;;;;;10.43;2.53;;;;;;;;;;5023485;28;20120;-77
2023/04/13 08:41:11;;;;;;;13.30;2.15;;;;;;;;;;5016772;28;20149;-77
2023/04/13 08:43:38;;;;;;;12.32;1.65;;;;;;;;;;5013362;28;20109;-77
2023/04/13 08:46:05;;;;;;;9.40;2.42;;;;;;;;;;5013035;28;20124;-78
2023/04/13 08:48:40;;;;;;;9.02;1.48;;;;;;;;;;5009883;28;20105;-75
2023/04/13 08:51:28;;;;;;;9.00;2.10;;;;;;;;;;5017306;28;20550;-76
2023/04/13 08:53:57;;;;;;;15.63;1.83;;;;;;;;;;5023984;28;20054;-76
2023/04/13 08:56:24;;;;;;;13.07;1.90;;;;;;;;;;5019584;28;20563;-76
2023/04/13 08:59:10;;;;;;;11.63;1.92;;;;;;;;;;5023870;28;20136;-76
2023/04/13 09:01:37;;;;;;;11.75;1.90;;;;;;;;;;5019089;28;20058;-76
2023/04/13 09:04:08;;;;;;;11.95;2.03;;;;;;;;;;5022100;28;20109;-76
2023/04/13 09:06:39;;;;;;;7.60;1.67;;;;;;;;;;5005509;28;20086;-76
2023/04/13 09:09:10;;;;;;;8.65;1.77;;;;;;;;;;5019432;28;20138;-75
2023/04/13 09:11:36;;;;;;;13.48;1.60;;;;;;;;;;5017485;28;20050;-75
2023/04/13 09:14:03;;;;;;;11.55;2.40;;;;;;;;;;5003425;28;20530;-76
2023/04/13 09:16:29;;;;;;;11.15;1.83;;;;;;;;;;5010641;28;20146;-76
2023/04/13 09:18:56;;;;;;;13.95;1.88;;;;;;;;;;5010341;28;20061;-77
2023/04/13 09:21:34;;;;;;;10.63;1.77;;;;;;;;;;5022231;28;20057;-77
2023/04/13 09:24:01;;;;;;;10.63;1.67;;;;;;;;;;5019583;28;21193;-76
2023/04/13 09:26:38;;;;;;;7.57;2.03;;;;;;;;;;5018998;28;20539;-77
2023/04/13 09:29:04;;;;;;;5.38;1.55;;;;;;;;;;5025095;28;20058;-78
2023/04/13 09:31:36;;;;;;;13.38;2.25;;;;;;;;;;5014711;28;20169;-78
2023/04/13 09:34:02;;;;;;;11.88;2.67;;;;;;;;;;5021363;28;20057;-78
2023/04/13 09:36:29;;;;;;;9.57;1.60;;;;;;;;;;5014759;28;20071;-77
2023/04/13 09:38:56;;;;;;;13.07;1.90;;;;;;;;;;5004296;28;20058;-76
2023/04/13 09:41:33;;;;;;;10.85;1.70;;;;;;;;;;5004505;28;20055;-77
2023/04/13 09:44:00;;;;;;;11.45;2.08;;;;;;;;;;5012788;28;20141;-78
2023/04/13 09:46:30;;;;;;;9.20;2.25;;;;;;;;;;5021292;28;20089;-78
2023/04/13 09:48:57;;;;;;;10.23;1.60;;;;;;;;;;5016913;28;20054;-78
2023/04/13 09:51:24;;;;;;;9.88;1.30;;;;;;;;;;5016031;28;20050;-78
2023/04/13 09:53:51;;;;;;;10.05;1.73;;;;;;;;;;5006500;28;20065;-78
2023/04/13 09:56:18;;;;;;;9.48;1.70;;;;;;;;;;5015634;28;20061;-78
2023/04/13 09:58:46;;;;;;;10.68;1.45;;;;;;;;;;5010789;28;20053;-78
2023/04/13 10:01:15;;;;;;;12.55;2.00;;;;;;;;;;5018706;28;20054;-78
2023/04/13 10:03:42;;;;;;;13.50;1.73;;;;;;;;;;5019006;28;20148;-78
2023/04/13 10:06:09;;;;;;;13.45;1.60;;;;;;;;;;5014692;28;20092;-78
2023/04/13 10:08:40;;;;;;;10.40;1.83;;;;;;;;;;5017720;28;20065;-78
2023/04/13 10:11:09;;;;;;;12.07;1.75;;;;;;;;;;5014249;28;20129;-79
2023/04/13 10:13:54;;;;;;;7.20;1.70;;;;;;;;;;5016727;28;20108;-79
2023/04/13 10:16:35;;;;;;;14.38;2.28;;;;;;;;;;5015782;28;20496;-81
2023/04/13 10:19:22;;;;;;;10.45;1.55;;;;;;;;;;5021310;28;20056;-79
2023/04/13 10:21:50;;;;;;;9.50;1.85;;;;;;;;;;5012992;28;20054;-79
2023/04/13 10:24:18;;;;;;;9.07;1.52;;;;;;;;;;5019510;28;20057;-80
2023/04/13 10:26:44;;;;;;;7.72;1.48;;;;;;;;;;5027646;28;20054;-79
2023/04/13 10:29:13;;;;;;;9.00;1.67;;;;;;;;;;5002692;28;20513;-79
2023/04/13 10:31:40;;;;;;;13.10;1.83;;;;;;;;;;5008941;28;20933;-77
2023/04/13 10:34:08;;;;;;;7.22;1.67;;;;;;;;;;5011426;28;20742;-79
2023/04/13 10:36:38;;;;;;;10.60;1.30;;;;;;;;;;5016596;28;20505;-80
2023/04/13 10:39:05;;;;;;;9.63;2.05;;;;;;;;;;5017650;28;21002;-79
2023/04/13 10:41:31;;;;;;;12.65;1.80;;;;;;;;;;5006922;28;20076;-79
2023/04/13 10:44:05;;;;;;;10.65;1.75;;;;;;;;;;5020764;28;20061;-79
2023/04/13 10:46:33;;;;;;;10.07;1.70;;;;;;;;;;5024145;28;22765;-78
2023/04/13 10:49:00;;;;;;;12.30;1.70;;;;;;;;;;5012813;28;20744;-80
2023/04/13 10:51:40;;;;;;;11.25;1.50;;;;;;;;;;5020144;28;20054;-79
2023/04/13 10:54:07;;;;;;;6.65;1.20;;;;;;;;;;5024469;28;20096;-78
2023/04/13 10:56:33;;;;;;;7.72;1.30;;;;;;;;;;5014888;28;20078;-79
2023/04/13 10:59:00;;;;;;;11.88;1.70;;;;;;;;;;5032755;28;20740;-78
2023/04/13 11:01:29;;;;;;;8.35;1.65;;;;;;;;;;5022639;28;20054;-79
2023/04/13 11:03:56;;;;;;;7.25;1.50;;;;;;;;;;5029198;28;20060;-78
2023/04/13 11:06:37;;;;;;;8.48;1.50;;;;;;;;;;5027426;28;20070;-79
2023/04/13 11:09:05;;;;;;;7.78;1.55;;;;;;;;;;5012878;28;20050;-79
2023/04/13 11:11:34;;;;;;;8.70;1.65;;;;;;;;;;5009177;28;20842;-79
2023/04/13 11:14:01;;;;;;;12.73;1.70;;;;;;;;;;5018274;28;20054;-79
2023/04/13 11:16:27;;;;;;;12.15;1.88;;;;;;;;;;5028200;28;20818;-79
2023/04/13 11:19:01;;;;;;;12.75;1.67;;;;;;;;;;5022078;28;20132;-80
2023/04/13 11:21:28;;;;;;;12.73;1.65;;;;;;;;;;5044637;28;20847;-80
2023/04/13 11:24:00;;;;;;;10.80;1.55;;;;;;;;;;5026999;28;20061;-80
2023/04/13 11:26:32;;;;;;;9.55;1.70;;;;;;;;;;5011090;28;20535;-81
2023/04/13 11:28:59;;;;;;;9.85;1.73;;;;;;;;;;5013383;28;20814;-79
2023/04/13 11:31:36;;;;;;;7.10;1.38;;;;;;;;;;5007712;28;20117;-80
2023/04/13 11:34:04;;;;;;;10.73;1.80;;;;;;;;;;5026152;28;20133;-77
2023/04/13 11:36:31;;;;;;;12.30;1.98;;;;;;;;;;5015145;28;20059;-79
2023/04/13 11:38:59;;;;;;;13.52;1.83;;;;;;;;;;5007885;28;20050;-80
2023/04/13 11:41:27;;;;;;;12.15;2.45;;;;;;;;;;5012537;28;20148;-78
2023/04/13 11:43:54;;;;;;;9.95;1.95;;;;;;;;;;5027548;28;20059;-80
2023/04/13 11:46:23;;;;;;;8.73;1.60;;;;;;;;;;5009516;28;20141;-79
2023/04/13 11:48:53;;;;;;;9.48;1.50;;;;;;;;;;5011671;28;20060;-79
2023/04/13 11:51:21;;;;;;;8.98;1.90;;;;;;;;;;5026711;28;20065;-80
2023/04/13 11:53:48;;;;;;;11.90;1.67;;;;;;;;;;5024816;28;20057;-80
2023/04/13 11:56:14;;;;;;;9.00;1.52;;;;;;;;;;5025669;28;20369;-79
2023/04/13 11:58:41;;;;;;;12.85;2.05;;;;;;;;;;5027039;28;20050;-79
2023/04/13 12:01:08;;;;;;;10.20;1.45;;;;;;;;;;5008908;28;20062;-79
2023/04/13 12:03:40;;;;;;;7.60;1.40;;;;;;;;;;5017573;28;20061;-80
2023/04/13 12:06:27;;;;;;;9.73;1.42;;;;;;;;;;5014189;28;20050;-80
2023/04/13 12:08:58;;;;;;;7.68;1.40;;;;;;;;;;5024552;28;20054;-80
2023/04/13 12:11:37;;;;;;;9.45;2.05;;;;;;;;;;5013983;28;20050;-79
2023/04/13 12:14:19;;;;;;;13.52;1.98;;;;;;;;;;5025797;28;21007;-79
2023/04/13 12:17:09;;;;;;;8.68;1.63;;;;;;;;;;5022651;28;20069;-79
2023/04/13 12:19:55;;;;;;;8.40;1.60;;;;;;;;;;5008236;28;20186;-80
2023/04/13 12:22:23;;;;;;;8.48;1.40;;;;;;;;;;5007615;28;20090;-79
2023/04/13 12:24:49;;;;;;;15.25;2.03;;;;;;;;;;5024612;28;20089;-80
2023/04/13 12:27:17;;;;;;;9.75;2.13;;;;;;;;;;5024223;28;20519;-78
2023/04/13 12:29:44;;;;;;;11.98;1.80;;;;;;;;;;5024582;28;20649;-79
2023/04/13 12:32:14;;;;;;;14.00;1.80;;;;;;;;;;5035751;28;20113;-80
2023/04/13 12:34:41;;;;;;;12.10;1.87;;;;;;;;;;5027397;28;20089;-79
2023/04/13 12:37:09;;;;;;;10.52;1.65;;;;;;;;;;5024946;28;20054;-79
2023/04/13 12:39:35;;;;;;;10.35;1.75;;;;;;;;;;5014604;28;20055;-79
2023/04/13 12:42:01;;;;;;;13.70;1.50;;;;;;;;;;5013009;28;20083;-79
2023/04/13 12:44:28;;;;;;;12.38;1.60;;;;;;;;;;5021045;28;20054;-79
2023/04/13 12:46:57;;;;;;;12.60;2.28;;;;;;;;;;5018704;28;20081;-79
2023/04/13 12:49:23;;;;;;;8.60;1.50;;;;;;;;;;5013155;28;20152;-79
2023/04/13 12:51:49;;;;;;;13.70;1.80;;;;;;;;;;5010442;28;20054;-79
2023/04/13 12:54:16;;;;;;;13.82;1.83;;;;;;;;;;5009762;28;20051;-78
2023/04/13 12:56:43;;;;;;;9.23;1.35;;;;;;;;;;5007268;28;20054;-79
2023/04/13 12:59:10;;;;;;;12.15;1.77;;;;;;;;;;5021504;28;20046;-79
2023/04/13 13:01:36;;;;;;;8.63;1.85;;;;;;;;;;5020857;28;20050;-79
2023/04/13 13:04:03;;;;;;;13.50;1.60;;;;;;;;;;5010836;28;20054;-78
2023/04/13 13:06:30;;;;;;;11.43;1.58;;;;;;;;;;5017386;28;20572;-79
2023/04/13 13:08:56;;;;;;;9.32;1.63;;;;;;;;;;5006091;28;20069;-78
2023/04/13 13:11:23;;;;;;;8.68;2.05;;;;;;;;;;5008838;28;20058;-79
2023/04/13 13:13:50;;;;;;;6.60;1.90;;;;;;;;;;5011883;28;20129;-79
2023/04/13 13:16:18;;;;;;;5.60;1.25;;;;;;;;;;5007445;28;20595;-79
2023/04/13 13:18:44;;;;;;;10.32;1.63;;;;;;;;;;5013254;28;20117;-78
2023/04/13 13:21:17;;;;;;;11.55;1.40;;;;;;;;;;5010184;28;20614;-78
2023/04/13 13:23:45;;;;;;;7.78;1.45;;;;;;;;;;5005432;28;20058;-80
2023/04/13 13:26:11;;;;;;;10.80;2.05;;;;;;;;;;5024857;28;20093;-79
2023/04/13 13:28:51;;;;;;;11.65;1.50;;;;;;;;;;5011642;28;20058;-79
2023/04/13 13:31:18;;;;;;;7.22;1.40;;;;;;;;;;5024896;28;20069;-79
2023/04/13 13:33:45;;;;;;;10.63;1.40;;;;;;;;;;5028188;28;20065;-80
2023/04/13 13:36:12;;;;;;;6.03;1.23;;;;;;;;;;5027888;28;20089;-79
2023/04/13 13:38:39;;;;;;;8.18;1.42;;;;;;;;;;5015466;28;20445;-79
2023/04/13 13:41:06;;;;;;;7.65;1.20;;;;;;;;;;5008232;28;20089;-79
2023/04/13 13:43:32;;;;;;;7.72;1.20;;;;;;;;;;5019888;28;20053;-79
2023/04/13 13:45:59;;;;;;;8.75;1.50;;;;;;;;;;5025881;28;20695;-78
2023/04/13 13:48:25;;;;;;;4.47;1.02;;;;;;;;;;5006833;28;20113;-79
2023/04/13 13:50:52;;;;;;;7.32;1.25;;;;;;;;;;5007314;28;20734;-78
2023/04/13 13:53:18;;;;;;;7.20;1.08;;;;;;;;;;5007161;28;20145;-79
2023/04/13 13:55:45;;;;;;;6.65;1.30;;;;;;;;;;5007630;28;20146;-79
2023/04/13 13:58:11;;;;;;;6.82;1.02;;;;;;;;;;5012917;28;20065;-79
2023/04/13 14:00:38;;;;;;;7.32;1.27;;;;;;;;;;5006795;28;20592;-79
2023/04/13 14:03:05;;;;;;;5.35;1.25;;;;;;;;;;5007789;28;21945;-79
2023/04/13 14:05:31;;;;;;;7.55;1.63;;;;;;;;;;5018626;28;20058;-78
2023/04/13 14:07:59;;;;;;;6.63;1.23;;;;;;;;;;5006418;28;20060;-78
2023/04/13 14:10:26;;;;;;;9.32;1.40;;;;;;;;;;5006335;28;20070;-79
2023/04/13 14:12:54;;;;;;;5.97;0.98;;;;;;;;;;5009012;28;20046;-79
2023/04/13 14:15:21;;;;;;;5.70;1.10;;;;;;;;;;5013282;28;20054;-78
2023/04/13 14:17:47;;;;;;;5.03;1.00;;;;;;;;;;5023267;28;20073;-78
2023/04/13 14:20:27;;;;;;;6.22;1.15;;;;;;;;;;5022989;28;20060;-79
2023/04/13 14:22:53;;;;;;;6.70;1.10;;;;;;;;;;5023632;28;20417;-79
2023/04/13 14:25:20;;;;;;;9.23;1.45;;;;;;;;;;5030420;28;20066;-79
2023/04/13 14:27:47;;;;;;;8.63;1.17;;;;;;;;;;5019491;28;20193;-79
2023/04/13 14:30:16;;;;;;;4.70;0.95;;;;;;;;;;5014180;28;20650;-80
2023/04/13 14:32:43;;;;;;;5.65;1.10;;;;;;;;;;5015589;28;20104;-82
2023/04/13 14:35:09;;;;;;;6.10;1.20;;;;;;;;;;5013090;28;20137;-80
2023/04/13 14:37:36;;;;;;;5.03;1.05;;;;;;;;;;5022980;28;22718;-77
2023/04/13 14:40:06;;;;;;;7.72;1.20;;;;;;;;;;5012931;28;20521;-78
2023/04/13 14:42:32;;;;;;;;;;;;;;;;;;5016056;28;20053;-78
2023/04/13 14:44:59;;;;;;;7.22;1.50;;;;;;;;;;5012500;28;46648;-78
2023/04/13 14:47:25;;;;;;;5.15;1.20;;;;;;;;;;5009553;28;20058;-78